sensor_id;sensor_type;location;lat;lon;timestamp;P1;durP1;ratioP1;P2;durP2;ratioP2
45734;SDS011;31446;49.632;8.328;2022-12-07T00:02:49;15.05;;;8.45;;
45734;SDS011;31446;49.632;8.328;2022-12-07T00:17:55;16.85;;;8.80;;
45734;SDS011;31446;49.632;8.328;2022-12-07T00:33:01;16.70;;;8.55;;
45734;SDS011;31446;49.632;8.328;2022-12-07T00:48:07;19.25;;;8.80;;
45734;SDS011;31446;49.632;8.328;2022-12-07T01:03:14;14.00;;;8.38;;
45734;SDS011;31446;49.632;8.328;2022-12-07T01:18:20;14.68;;;8.77;;
45734;SDS011;31446;49.632;8.328;2022-12-07T01:33:27;19.05;;;9.77;;
45734;SDS011;31446;49.632;8.328;2022-12-07T01:48:35;14.20;;;8.45;;
45734;SDS011;31446;49.632;8.328;2022-12-07T02:03:47;11.88;;;7.60;;
45734;SDS011;31446;49.632;8.328;2022-12-07T02:19:08;14.98;;;7.72;;
45734;SDS011;31446;49.632;8.328;2022-12-07T02:34:38;19.63;;;8.98;;
45734;SDS011;31446;49.632;8.328;2022-12-07T02:49:49;17.63;;;10.33;;
45734;SDS011;31446;49.632;8.328;2022-12-07T03:04:59;15.73;;;8.32;;
45734;SDS011;31446;49.632;8.328;2022-12-07T03:20:15;12.00;;;6.95;;
45734;SDS011;31446;49.632;8.328;2022-12-07T03:35:25;13.75;;;7.97;;
45734;SDS011;31446;49.632;8.328;2022-12-07T03:50:35;12.80;;;7.88;;
45734;SDS011;31446;49.632;8.328;2022-12-07T04:05:48;21.03;;;6.63;;
45734;SDS011;31446;49.632;8.328;2022-12-07T04:20:54;13.73;;;7.18;;
45734;SDS011;31446;49.632;8.328;2022-12-07T04:36:00;11.60;;;6.97;;
45734;SDS011;31446;49.632;8.328;2022-12-07T04:51:07;12.82;;;7.88;;
45734;SDS011;31446;49.632;8.328;2022-12-07T05:06:13;18.30;;;9.65;;
45734;SDS011;31446;49.632;8.328;2022-12-07T05:21:19;18.17;;;9.55;;
45734;SDS011;31446;49.632;8.328;2022-12-07T05:36:26;12.95;;;8.45;;
45734;SDS011;31446;49.632;8.328;2022-12-07T05:51:33;15.68;;;9.38;;
45734;SDS011;31446;49.632;8.328;2022-12-07T06:06:40;23.17;;;11.90;;
45734;SDS011;31446;49.632;8.328;2022-12-07T06:21:46;21.77;;;10.70;;
45734;SDS011;31446;49.632;8.328;2022-12-07T06:36:52;15.68;;;8.15;;
45734;SDS011;31446;49.632;8.328;2022-12-07T06:51:59;17.10;;;8.82;;
45734;SDS011;31446;49.632;8.328;2022-12-07T07:07:07;15.70;;;7.88;;
45734;SDS011;31446;49.632;8.328;2022-12-07T07:22:13;14.68;;;8.45;;
45734;SDS011;31446;49.632;8.328;2022-12-07T07:37:19;15.95;;;9.60;;
45734;SDS011;31446;49.632;8.328;2022-12-07T07:52:26;20.65;;;10.52;;
45734;SDS011;31446;49.632;8.328;2022-12-07T08:07:32;21.08;;;10.00;;
45734;SDS011;31446;49.632;8.328;2022-12-07T08:22:38;16.92;;;9.68;;
45734;SDS011;31446;49.632;8.328;2022-12-07T08:37:45;20.70;;;10.90;;
45734;SDS011;31446;49.632;8.328;2022-12-07T08:52:52;23.58;;;10.98;;
45734;SDS011;31446;49.632;8.328;2022-12-07T09:08:02;18.08;;;10.48;;
45734;SDS011;31446;49.632;8.328;2022-12-07T09:23:09;20.90;;;9.95;;
45734;SDS011;31446;49.632;8.328;2022-12-07T09:38:15;16.50;;;9.93;;
45734;SDS011;31446;49.632;8.328;2022-12-07T09:53:22;17.13;;;9.38;;
45734;SDS011;31446;49.632;8.328;2022-12-07T10:08:32;15.80;;;7.25;;
45734;SDS011;31446;49.632;8.328;2022-12-07T10:23:39;12.90;;;7.32;;
45734;SDS011;31446;49.632;8.328;2022-12-07T10:38:47;8.75;;;3.50;;
45734;SDS011;31446;49.632;8.328;2022-12-07T10:53:57;8.38;;;2.40;;
45734;SDS011;31446;49.632;8.328;2022-12-07T11:09:20;6.77;;;2.33;;
45734;SDS011;31446;49.632;8.328;2022-12-07T11:24:53;4.82;;;2.75;;
45734;SDS011;31446;49.632;8.328;2022-12-07T11:40:11;7.75;;;2.67;;
45734;SDS011;31446;49.632;8.328;2022-12-07T11:55:26;2.80;;;1.95;;
45734;SDS011;31446;49.632;8.328;2022-12-07T12:10:39;4.22;;;2.03;;
45734;SDS011;31446;49.632;8.328;2022-12-07T12:25:55;9.95;;;2.90;;
45734;SDS011;31446;49.632;8.328;2022-12-07T12:41:04;4.22;;;2.15;;
45734;SDS011;31446;49.632;8.328;2022-12-07T12:56:21;3.00;;;2.05;;
45734;SDS011;31446;49.632;8.328;2022-12-07T13:11:42;12.63;;;3.63;;
45734;SDS011;31446;49.632;8.328;2022-12-07T13:26:51;8.65;;;3.03;;
45734;SDS011;31446;49.632;8.328;2022-12-07T13:42:09;7.28;;;3.38;;
45734;SDS011;31446;49.632;8.328;2022-12-07T13:57:25;10.65;;;3.50;;
45734;SDS011;31446;49.632;8.328;2022-12-07T14:12:35;9.82;;;4.07;;
45734;SDS011;31446;49.632;8.328;2022-12-07T14:27:47;4.47;;;2.33;;
45734;SDS011;31446;49.632;8.328;2022-12-07T14:43:00;8.20;;;3.75;;
45734;SDS011;31446;49.632;8.328;2022-12-07T14:58:07;7.30;;;2.92;;
45734;SDS011;31446;49.632;8.328;2022-12-07T15:13:18;6.53;;;2.03;;
45734;SDS011;31446;49.632;8.328;2022-12-07T15:28:37;16.48;;;4.72;;
45734;SDS011;31446;49.632;8.328;2022-12-07T15:43:43;13.95;;;6.13;;
45734;SDS011;31446;49.632;8.328;2022-12-07T15:59:02;12.55;;;5.47;;
45734;SDS011;31446;49.632;8.328;2022-12-07T16:14:08;13.70;;;5.53;;
45734;SDS011;31446;49.632;8.328;2022-12-07T16:29:14;10.25;;;5.05;;
45734;SDS011;31446;49.632;8.328;2022-12-07T16:44:22;10.18;;;5.40;;
45734;SDS011;31446;49.632;8.328;2022-12-07T16:59:28;9.07;;;5.32;;
45734;SDS011;31446;49.632;8.328;2022-12-07T17:14:34;9.95;;;6.05;;
45734;SDS011;31446;49.632;8.328;2022-12-07T17:29:53;20.52;;;7.63;;
45734;SDS011;31446;49.632;8.328;2022-12-07T17:44:59;15.15;;;7.82;;
45734;SDS011;31446;49.632;8.328;2022-12-07T18:00:06;19.58;;;6.68;;
45734;SDS011;31446;49.632;8.328;2022-12-07T18:15:14;14.75;;;7.25;;
45734;SDS011;31446;49.632;8.328;2022-12-07T18:30:20;15.25;;;7.90;;
45734;SDS011;31446;49.632;8.328;2022-12-07T18:45:27;15.43;;;8.20;;
45734;SDS011;31446;49.632;8.328;2022-12-07T19:00:34;13.68;;;7.60;;
45734;SDS011;31446;49.632;8.328;2022-12-07T19:15:41;15.60;;;7.40;;
45734;SDS011;31446;49.632;8.328;2022-12-07T19:30:47;23.45;;;8.05;;
45734;SDS011;31446;49.632;8.328;2022-12-07T19:45:53;16.40;;;8.27;;
45734;SDS011;31446;49.632;8.328;2022-12-07T20:01:03;15.07;;;8.52;;
45734;SDS011;31446;49.632;8.328;2022-12-07T20:16:10;26.42;;;10.52;;
45734;SDS011;31446;49.632;8.328;2022-12-07T20:31:19;18.02;;;9.32;;
45734;SDS011;31446;49.632;8.328;2022-12-07T20:46:26;19.50;;;9.60;;
45734;SDS011;31446;49.632;8.328;2022-12-07T21:01:32;16.10;;;9.23;;
45734;SDS011;31446;49.632;8.328;2022-12-07T21:16:38;18.90;;;9.65;;
45734;SDS011;31446;49.632;8.328;2022-12-07T21:31:45;24.52;;;12.15;;
45734;SDS011;31446;49.632;8.328;2022-12-07T21:46:51;21.77;;;11.00;;
45734;SDS011;31446;49.632;8.328;2022-12-07T22:01:57;18.65;;;10.55;;
45734;SDS011;31446;49.632;8.328;2022-12-07T22:17:03;20.60;;;11.15;;
45734;SDS011;31446;49.632;8.328;2022-12-07T22:32:10;21.35;;;11.52;;
45734;SDS011;31446;49.632;8.328;2022-12-07T22:47:16;25.45;;;13.20;;
45734;SDS011;31446;49.632;8.328;2022-12-07T23:02:22;25.55;;;14.18;;
45734;SDS011;31446;49.632;8.328;2022-12-07T23:17:28;30.63;;;13.48;;
45734;SDS011;31446;49.632;8.328;2022-12-07T23:32:35;32.90;;;14.88;;
45734;SDS011;31446;49.632;8.328;2022-12-07T23:47:41;27.17;;;14.30;;
